M\v Black Rhino — V7TR7 — position and weather

sailwx.info

Track history (hours):
 
Tides and Currents Weather Stations Pressure Air Temp Water Temp Dewpoint Dewpoint Depression Visibility Wind Speed Wind Dir Waves Ship Positions

M\v Black Rhino

Last reported at 2017-Oct-22 11:58 UTC. Time now 2017-Oct-22 12:21 UTC.
Position S 29°53' E 031°02'.

Length 101 m; draft 4.2 m.

Type: Cargo ship. MMSI: 538090408.

Date/timePositionNaut miles runAvg speedWind from/ knotsBaromVisibWave heightAir tempDewpointWater temp
2017-Oct-22 11:58S 29°53' E 031°02'0 0.0
2017-Oct-22 11:28S 29°53' E 031°02'0 0.0
2017-Oct-22 10:58S 29°53' E 031°02'0 0.0
2017-Oct-22 10:28S 29°53' E 031°02'0 0.0
2017-Oct-22 09:55S 29°53' E 031°02'0 0.0
2017-Oct-22 09:28S 29°53' E 031°02'0 0.0
2017-Oct-22 08:58S 29°53' E 031°02'0 0.0
2017-Oct-22 08:30S 29°53' E 031°02'0 0.0
2017-Oct-22 07:54S 29°53' E 031°02'0 0.0
2017-Oct-22 07:30S 29°53' E 031°02'0 0.0
2017-Oct-22 07:00S 29°53' E 031°02'0 0.0
2017-Oct-22 06:21S 29°53' E 031°02'6 0.7
2017-Oct-21 21:48S 29°48' E 031°06'1 2.1
2017-Oct-21 21:30S 29°49' E 031°06'1 2.1
2017-Oct-21 21:00S 29°48' E 031°06'1 2.5
2017-Oct-21 20:30S 29°47' E 031°06'1 1.5
2017-Oct-21 20:00S 29°46' E 031°06'1 1.8
2017-Oct-21 19:30S 29°47' E 031°07'1 2.1
2017-Oct-21 19:00S 29°48' E 031°07'1 1.8
2017-Oct-21 18:30S 29°49' E 031°08'1 2.0
2017-Oct-21 18:00S 29°49' E 031°08'510.1
2017-Oct-21 17:30S 29°55' E 031°08'611.9
2017-Oct-21 17:00S 29°51' E 031°14'815.1
2017-Oct-21 16:30S 29°46' E 031°20'3 5.4
2017-Oct-21 16:01S 29°44' E 031°23'2 3.5
2017-Oct-21 15:30S 29°43' E 031°23'2 3.3
2017-Oct-21 15:00S 29°44' E 031°22'9 9.3
2017-Oct-21 14:00S 29°48' E 031°12'0 0.8
2017-Oct-21 13:30S 29°48' E 031°12'3 6.5
2017-Oct-21 13:00S 29°48' E 031°08'2 3.2
2017-Oct-21 12:28S 29°48' E 031°06'3 6.3
2017-Oct-21 12:00S 29°51' E 031°05'3 6.1
2017-Oct-21 11:30S 29°52' E 031°02'2 3.3
2017-Oct-21 10:59S 29°53' E 031°00'0 0.0
2017-Oct-21 10:29S 29°53' E 031°00'0 0.0
2017-Oct-21 09:59S 29°53' E 031°00'0 0.0
2017-Oct-21 09:29S 29°53' E 031°00'0 0.0
2017-Oct-21 08:59S 29°53' E 031°00'0 0.0
2017-Oct-21 08:29S 29°53' E 031°00'0 0.0
2017-Oct-21 07:59S 29°53' E 031°00'0 0.0
2017-Oct-21 07:29S 29°53' E 031°00'0 0.0
2017-Oct-21 06:59S 29°53' E 031°00'0 0.0
2017-Oct-21 06:29S 29°53' E 031°00'0 0.0
2017-Oct-21 05:53S 29°53' E 031°00'0 0.0
2017-Oct-21 05:29S 29°53' E 031°00'0 0.0
2017-Oct-21 05:00S 29°53' E 031°00'0 0.0
2017-Oct-21 04:30S 29°53' E 031°00'0 0.0
2017-Oct-21 04:00S 29°53' E 031°00'0 0.0
2017-Oct-21 03:30S 29°53' E 031°00'0 0.0
2017-Oct-21 03:00S 29°53' E 031°00'0 0.0
2017-Oct-21 02:30S 29°53' E 031°00'0 0.0
2017-Oct-21 02:00S 29°53' E 031°00'0 0.0
2017-Oct-21 01:30S 29°53' E 031°00'0 0.0
2017-Oct-21 01:00S 29°53' E 031°00'0 0.0
2017-Oct-21 00:30S 29°53' E 031°00'0 0.0
2017-Oct-21 00:00S 29°53' E 031°00'0 0.0
2017-Oct-20 23:30S 29°53' E 031°00'0 0.0
2017-Oct-20 23:00S 29°53' E 031°00'0 0.0
2017-Oct-20 22:30S 29°53' E 031°00'0 0.0
2017-Oct-20 22:00S 29°53' E 031°00'0 0.0
2017-Oct-20 21:30S 29°53' E 031°00'0 0.0
2017-Oct-20 21:00S 29°53' E 031°00'0 0.0
2017-Oct-20 20:30S 29°53' E 031°00'0 0.0
2017-Oct-20 20:00S 29°53' E 031°00'0 0.0
2017-Oct-20 19:30S 29°53' E 031°00'0 0.0
2017-Oct-20 19:00S 29°53' E 031°00'0 0.0
2017-Oct-20 18:30S 29°53' E 031°00'0 0.0
2017-Oct-20 17:58S 29°53' E 031°00'0 0.0
2017-Oct-20 17:28S 29°53' E 031°00'0 0.0
2017-Oct-20 16:58S 29°53' E 031°00'0 0.0
2017-Oct-20 16:28S 29°53' E 031°00'0 0.0
2017-Oct-20 15:58S 29°53' E 031°00'0 0.0
2017-Oct-20 15:28S 29°53' E 031°00'0 0.0
2017-Oct-20 14:58S 29°53' E 031°00'0 0.0
2017-Oct-20 13:58S 29°53' E 031°00'0 0.0
2017-Oct-20 13:28S 29°53' E 031°00'0 0.0
2017-Oct-20 12:58S 29°53' E 031°00'0 0.0
2017-Oct-20 12:28S 29°53' E 031°00'0 0.0
2017-Oct-20 11:58S 29°53' E 031°00'0 0.0
2017-Oct-20 11:28S 29°53' E 031°00'0 0.0
2017-Oct-20 10:58S 29°53' E 031°00'0 0.0
2017-Oct-20 10:28S 29°53' E 031°00'0 0.0
2017-Oct-20 09:58S 29°53' E 031°00'0 0.0
2017-Oct-20 09:28S 29°53' E 031°00'0 0.0
2017-Oct-20 08:58S 29°53' E 031°00'0 0.0
2017-Oct-20 08:28S 29°53' E 031°00'0 0.0
2017-Oct-20 07:58S 29°53' E 031°00'0 0.0
2017-Oct-20 07:30S 29°53' E 031°00'0 0.0
2017-Oct-20 07:00S 29°53' E 031°00'0 0.0
2017-Oct-20 06:30S 29°53' E 031°00'0 0.0
2017-Oct-20 05:53S 29°53' E 031°00'0 0.0
2017-Oct-20 05:29S 29°53' E 031°00'0 0.0
2017-Oct-20 04:59S 29°53' E 031°00'0 0.0
2017-Oct-20 04:29S 29°53' E 031°00'0 0.0
2017-Oct-20 03:59S 29°53' E 031°00'0 0.0
2017-Oct-20 03:29S 29°53' E 031°00'0 0.0
2017-Oct-20 02:59S 29°53' E 031°00'0 0.0
2017-Oct-20 02:29S 29°53' E 031°00'0 0.0
2017-Oct-20 01:59S 29°53' E 031°00'0 0.0
2017-Oct-20 01:29S 29°53' E 031°00'0 0.0
2017-Oct-20 00:59S 29°53' E 031°00'0 0.0
2017-Oct-20 00:29S 29°53' E 031°00'0 0.0
2017-Oct-19 23:59S 29°53' E 031°00'0 0.0
2017-Oct-19 23:29S 29°53' E 031°00'0 0.0
2017-Oct-19 22:59S 29°53' E 031°00'0 0.0
2017-Oct-19 22:29S 29°53' E 031°00'0 0.0
2017-Oct-19 21:57S 29°53' E 031°00'0 0.0
2017-Oct-19 21:29S 29°53' E 031°00'0 0.0
2017-Oct-19 20:56S 29°53' E 031°00'0 0.0
2017-Oct-19 20:29S 29°53' E 031°00'0 0.0
2017-Oct-19 19:59S 29°53' E 031°00'0 0.0
2017-Oct-19 19:29S 29°53' E 031°00'0 0.0
2017-Oct-19 18:59S 29°53' E 031°00'0 0.0
2017-Oct-19 18:30S 29°53' E 031°00'0 0.0
2017-Oct-19 17:58S 29°53' E 031°00'0 0.0
2017-Oct-19 17:28S 29°53' E 031°00'0 0.0
2017-Oct-19 16:58S 29°53' E 031°00'0 0.0
2017-Oct-19 16:28S 29°53' E 031°00'0 0.0
2017-Oct-19 15:58S 29°53' E 031°00'0 0.0
2017-Oct-19 15:28S 29°53' E 031°00'0 0.0
2017-Oct-19 14:58S 29°53' E 031°00'0 0.0
2017-Oct-19 14:25S 29°53' E 031°00'0 0.0
2017-Oct-19 13:58S 29°53' E 031°00'0 0.0
2017-Oct-19 13:28S 29°53' E 031°00'0 0.0
2017-Oct-19 12:55S 29°53' E 031°00'0 0.0
2017-Oct-19 12:25S 29°53' E 031°00'0 0.0
2017-Oct-19 11:58S 29°53' E 031°00'0 0.0
2017-Oct-19 11:25S 29°53' E 031°00'0 0.0
2017-Oct-19 10:58S 29°53' E 031°00'0 0.0
2017-Oct-19 10:28S 29°53' E 031°00'0 0.0
2017-Oct-19 09:58S 29°53' E 031°00'0 0.0
2017-Oct-19 09:25S 29°53' E 031°00'0 0.0
2017-Oct-19 08:58S 29°53' E 031°00'0 0.0
2017-Oct-19 08:25S 29°53' E 031°00'0 0.0
2017-Oct-19 07:58S 29°53' E 031°00'0 0.0
2017-Oct-19 07:28S 29°53' E 031°00'0 0.0
2017-Oct-19 06:58S 29°53' E 031°00'0 0.0
2017-Oct-19 06:28S 29°53' E 031°00'0 0.0
2017-Oct-19 05:52S 29°53' E 031°00'0 0.0
2017-Oct-19 05:28S 29°53' E 031°00'0 0.0
2017-Oct-19 04:58S 29°53' E 031°00'0 0.0
2017-Oct-19 04:25S 29°53' E 031°00'0 0.0
2017-Oct-19 03:58S 29°53' E 031°00'0 0.0
2017-Oct-19 03:25S 29°53' E 031°00'0 0.0
2017-Oct-19 02:58S 29°53' E 031°00'0 0.0
2017-Oct-19 02:28S 29°53' E 031°00'0 0.0
2017-Oct-19 01:58S 29°53' E 031°00'0 0.0
2017-Oct-19 01:28S 29°53' E 031°00'0 0.0
2017-Oct-19 00:58S 29°53' E 031°00'0 0.0
2017-Oct-19 00:28S 29°53' E 031°00'0 0.0
2017-Oct-18 23:58S 29°53' E 031°00'0 0.0
2017-Oct-18 23:28S 29°53' E 031°00'0 0.0
2017-Oct-18 22:58S 29°53' E 031°00'0 0.0
2017-Oct-18 22:28S 29°53' E 031°00'0 0.0
2017-Oct-18 21:58S 29°53' E 031°00'0 0.0
2017-Oct-18 21:28S 29°53' E 031°00'0 0.0
2017-Oct-18 20:58S 29°53' E 031°00'0 0.0
2017-Oct-18 20:28S 29°53' E 031°00'0 0.0
2017-Oct-18 19:58S 29°53' E 031°00'0 0.0
2017-Oct-18 19:28S 29°53' E 031°00'0 0.0
2017-Oct-18 18:58S 29°53' E 031°00'0 0.0
2017-Oct-18 18:28S 29°53' E 031°00'0 0.0
2017-Oct-18 17:59S 29°53' E 031°00'0 0.0
2017-Oct-18 17:29S 29°53' E 031°00'0 0.0
2017-Oct-18 16:59S 29°53' E 031°00'0 0.0
2017-Oct-18 16:29S 29°53' E 031°00'0 0.0
2017-Oct-18 15:59S 29°53' E 031°00'0 0.0
2017-Oct-18 15:29S 29°53' E 031°00'0 0.0
2017-Oct-18 14:59S 29°53' E 031°00'0 0.0
2017-Oct-18 13:59S 29°53' E 031°00'0 0.0
2017-Oct-18 13:29S 29°53' E 031°00'0 0.0
2017-Oct-18 12:59S 29°53' E 031°00'0 0.0
2017-Oct-18 12:29S 29°53' E 031°00'0 0.0
2017-Oct-18 11:59S 29°53' E 031°00'0 0.0
2017-Oct-18 11:29S 29°53' E 031°00'0 0.0
2017-Oct-18 10:59S 29°53' E 031°00'0 0.0
2017-Oct-18 10:29S 29°53' E 031°00'0 0.0
2017-Oct-18 09:59S 29°53' E 031°00'0 0.0
2017-Oct-18 09:29S 29°53' E 031°00'0 0.0
2017-Oct-18 08:59S 29°53' E 031°00'0 0.0
2017-Oct-18 08:29S 29°53' E 031°00'0 0.0
2017-Oct-18 07:59S 29°53' E 031°00'0 0.0
2017-Oct-18 07:30S 29°53' E 031°00'0 0.0
2017-Oct-18 07:00S 29°53' E 031°00'0 0.0
2017-Oct-18 06:29S 29°53' E 031°00'0 0.0
2017-Oct-18 05:53S 29°53' E 031°00'0 0.0
2017-Oct-18 05:29S 29°53' E 031°00'0 0.0
2017-Oct-18 04:59S 29°53' E 031°00'0 0.0
2017-Oct-18 04:29S 29°53' E 031°00'0 0.0
2017-Oct-18 04:00S 29°53' E 031°00'0 0.0
2017-Oct-18 03:30S 29°53' E 031°00'0 0.0
2017-Oct-18 03:00S 29°53' E 031°00'0 0.0
2017-Oct-18 02:30S 29°53' E 031°00'0 0.0
2017-Oct-18 02:00S 29°53' E 031°00'0 0.0
2017-Oct-18 01:30S 29°53' E 031°00'0 0.0
2017-Oct-18 01:00S 29°53' E 031°00'0 0.0
2017-Oct-18 00:30S 29°53' E 031°00'0 0.0
2017-Oct-18 00:00S 29°53' E 031°00'0 0.0
2017-Oct-17 23:30S 29°53' E 031°00'0 0.0
2017-Oct-17 23:00S 29°53' E 031°00'0 0.0
2017-Oct-17 22:30S 29°53' E 031°00'0 0.0
2017-Oct-17 22:00S 29°53' E 031°00'0 0.0
2017-Oct-17 21:29S 29°53' E 031°00'0 0.0
2017-Oct-17 20:59S 29°53' E 031°00'0 0.0
2017-Oct-17 20:29S 29°53' E 031°00'0 0.0
2017-Oct-17 19:59S 29°53' E 031°00'0 0.0
2017-Oct-17 19:26S 29°53' E 031°00'0 0.0
2017-Oct-17 19:00S 29°53' E 031°00'0 0.0
2017-Oct-17 18:29S 29°53' E 031°00'0 0.0
2017-Oct-17 17:59S 29°53' E 031°00'0 0.0
2017-Oct-17 17:29S 29°53' E 031°00'0 0.0
2017-Oct-17 16:59S 29°53' E 031°00'0 0.0
2017-Oct-17 16:29S 29°53' E 031°00'0 0.0
2017-Oct-17 15:59S 29°53' E 031°00'0 0.0
2017-Oct-17 15:29S 29°53' E 031°00'0 0.0
2017-Oct-17 14:59S 29°53' E 031°00'0 0.0
2017-Oct-17 14:29S 29°53' E 031°00'0 0.0
2017-Oct-17 13:59S 29°53' E 031°00'0 0.0
2017-Oct-17 13:26S 29°53' E 031°00'0 0.0
2017-Oct-17 12:59S 29°53' E 031°00'0 0.0
2017-Oct-17 12:26S 29°53' E 031°00'0 0.0
2017-Oct-17 11:59S 29°53' E 031°00'0 0.0
2017-Oct-17 11:30S 29°53' E 031°00'0 0.0
2017-Oct-17 11:00S 29°53' E 031°00'0 0.0
2017-Oct-17 10:30S 29°53' E 031°00'0 0.0
2017-Oct-17 10:00S 29°53' E 031°00'0 0.0
2017-Oct-17 09:30S 29°53' E 031°00'0 0.0
2017-Oct-17 08:59S 29°53' E 031°00'0 0.0
2017-Oct-17 08:29S 29°53' E 031°00'0 0.0
2017-Oct-17 07:59S 29°53' E 031°00'0 0.0
2017-Oct-17 07:29S 29°53' E 031°00'0 0.0
2017-Oct-17 06:59S 29°53' E 031°00'0 0.0
2017-Oct-17 06:29S 29°53' E 031°00'0 0.0
2017-Oct-17 05:53S 29°53' E 031°00'0 0.0
2017-Oct-17 05:29S 29°53' E 031°00'0 0.0
2017-Oct-17 05:00S 29°53' E 031°00'0 0.0
2017-Oct-17 04:30S 29°53' E 031°00'0 0.0
2017-Oct-17 04:00S 29°53' E 031°00'0 0.0
2017-Oct-17 03:15S 29°53' E 031°00'0 0.0
2017-Oct-17 03:00S 29°53' E 031°00'0 0.0
2017-Oct-17 02:27S 29°53' E 031°00'0 0.0
2017-Oct-17 02:00S 29°53' E 031°00'0 0.0
2017-Oct-17 01:30S 29°53' E 031°00'0 0.0
2017-Oct-17 01:00S 29°53' E 031°00'0 0.0
2017-Oct-17 00:29S 29°53' E 031°00'0 0.0
2017-Oct-16 23:59S 29°53' E 031°00'0 0.0
2017-Oct-16 23:29S 29°53' E 031°00'0 0.0
2017-Oct-16 22:59S 29°53' E 031°00'0 0.0
2017-Oct-16 22:29S 29°53' E 031°00'0 0.0
2017-Oct-16 21:59S 29°53' E 031°00'0 0.0
2017-Oct-16 21:29S 29°53' E 031°00'0 0.0
2017-Oct-16 20:59S 29°53' E 031°00'0 0.0
2017-Oct-16 20:29S 29°53' E 031°00'0 0.0
2017-Oct-16 19:59S 29°53' E 031°00'0 0.0
2017-Oct-16 19:29S 29°53' E 031°00'0 0.0
2017-Oct-16 19:00S 29°53' E 031°00'0 0.0
2017-Oct-16 18:30S 29°53' E 031°00'0 0.0
2017-Oct-16 17:59S 29°53' E 031°00'0 0.0
2017-Oct-16 17:29S 29°53' E 031°00'0 0.0
2017-Oct-16 16:59S 29°53' E 031°00'0 0.0
2017-Oct-16 16:29S 29°53' E 031°00'0 0.0
2017-Oct-16 15:59S 29°53' E 031°00'0 0.0
2017-Oct-16 15:29S 29°53' E 031°00'0 0.0
2017-Oct-16 14:59S 29°53' E 031°00'0 0.0
2017-Oct-16 14:29S 29°53' E 031°00'0 0.0
2017-Oct-16 13:29S 29°53' E 031°00'0 0.0
2017-Oct-16 12:59S 29°53' E 031°00'0 0.0
2017-Oct-16 12:29S 29°53' E 031°00'0 0.0
2017-Oct-16 11:59S 29°53' E 031°00'0 0.0
2017-Oct-16 11:29S 29°53' E 031°00'0 0.0
2017-Oct-16 10:59S 29°53' E 031°00'0 0.0
2017-Oct-16 10:29S 29°53' E 031°00'0 0.0
2017-Oct-16 09:59S 29°53' E 031°00'0 0.0
2017-Oct-16 09:29S 29°53' E 031°00'0 0.0
2017-Oct-16 08:59S 29°53' E 031°00'0 0.0
2017-Oct-16 08:29S 29°53' E 031°00'0 0.0
2017-Oct-16 07:59S 29°53' E 031°00'0 0.0
2017-Oct-16 07:29S 29°53' E 031°00'0 0.0
2017-Oct-16 06:59S 29°53' E 031°00'0 0.0
2017-Oct-16 06:29S 29°53' E 031°00'0 0.0
2017-Oct-16 05:53S 29°53' E 031°00'0 0.0
2017-Oct-16 05:29S 29°53' E 031°00'0 0.0
2017-Oct-16 04:59S 29°53' E 031°00'0 0.0
2017-Oct-16 04:29S 29°53' E 031°00'0 0.0
2017-Oct-16 03:59S 29°53' E 031°00'0 0.0
2017-Oct-16 03:29S 29°53' E 031°00'0 0.0
2017-Oct-16 02:59S 29°53' E 031°00'0 0.0
2017-Oct-16 02:29S 29°53' E 031°00'0 0.0
2017-Oct-16 01:59S 29°53' E 031°00'0 0.0
2017-Oct-16 01:29S 29°53' E 031°00'0 0.0
2017-Oct-16 00:59S 29°53' E 031°00'0 0.0
2017-Oct-16 00:29S 29°53' E 031°00'0 0.0
2017-Oct-15 23:59S 29°53' E 031°00'0 0.0
2017-Oct-15 23:26S 29°53' E 031°00'0 0.0
2017-Oct-15 22:59S 29°53' E 031°00'0 0.0
2017-Oct-15 22:29S 29°53' E 031°00'0 0.0
2017-Oct-15 21:59S 29°53' E 031°00'0 0.0
2017-Oct-15 21:29S 29°53' E 031°00'0 0.0
2017-Oct-15 20:59S 29°53' E 031°00'0 0.0
2017-Oct-15 20:29S 29°53' E 031°00'0 0.0
2017-Oct-15 19:59S 29°53' E 031°00'0 0.0
2017-Oct-15 19:29S 29°53' E 031°00'0 0.0
2017-Oct-15 18:59S 29°53' E 031°00'0 0.0
2017-Oct-15 18:29S 29°53' E 031°00'0 0.0
2017-Oct-15 17:59S 29°53' E 031°00'0 0.0
2017-Oct-15 17:29S 29°53' E 031°00'0 0.0
2017-Oct-15 16:59S 29°53' E 031°00'0 0.0
2017-Oct-15 16:29S 29°53' E 031°00'0 0.0
2017-Oct-15 15:59S 29°53' E 031°00'0 0.0
2017-Oct-15 15:29S 29°53' E 031°00'0 0.0
2017-Oct-15 14:59S 29°53' E 031°00'0 0.0
2017-Oct-15 13:59S 29°53' E 031°00'0 0.0
2017-Oct-15 13:29S 29°53' E 031°00'0 0.0
2017-Oct-15 12:59S 29°53' E 031°00'0 0.0
2017-Oct-15 12:29S 29°53' E 031°00'0 0.0
2017-Oct-15 11:59S 29°53' E 031°00'0 0.0
2017-Oct-15 08:20S 29°53' E 031°00'0 0.0
2017-Oct-15 07:59S 29°53' E 031°00'0 0.0
2017-Oct-15 07:29S 29°53' E 031°00'0 0.0
2017-Oct-15 06:59S 29°53' E 031°00'0 0.0
2017-Oct-15 06:29S 29°53' E 031°00'0 0.0
2017-Oct-15 05:44S 29°53' E 031°00'0 0.0
2017-Oct-15 05:29S 29°53' E 031°00'0 0.0
2017-Oct-15 04:59S 29°53' E 031°00'0 0.0
2017-Oct-15 04:29S 29°53' E 031°00'0 0.0
2017-Oct-15 03:59S 29°53' E 031°00'0 0.0
2017-Oct-15 03:29S 29°53' E 031°00'0 0.0
2017-Oct-15 02:59S 29°53' E 031°00'0 0.0
2017-Oct-15 02:29S 29°53' E 031°00'0 0.0
2017-Oct-15 01:59S 29°53' E 031°00'0 0.0
2017-Oct-15 01:29S 29°53' E 031°00'0 0.0
2017-Oct-15 00:59S 29°53' E 031°00'0 0.0
2017-Oct-15 00:29S 29°53' E 031°00'0 0.0
2017-Oct-14 23:59S 29°53' E 031°00'0 0.0
2017-Oct-14 23:29S 29°53' E 031°00'0 0.0
2017-Oct-14 22:59S 29°53' E 031°00'0 0.0
2017-Oct-14 22:29S 29°53' E 031°00'0 0.0
2017-Oct-14 21:59S 29°53' E 031°00'0 0.0
2017-Oct-14 21:29S 29°53' E 031°00'0 0.0
2017-Oct-14 20:59S 29°53' E 031°00'0 0.0
2017-Oct-14 20:29S 29°53' E 031°00'0 0.0
2017-Oct-14 19:59S 29°53' E 031°00'0 0.0
2017-Oct-14 19:29S 29°53' E 031°00'0 0.0
2017-Oct-14 18:59S 29°53' E 031°00'0 0.0
2017-Oct-14 18:29S 29°53' E 031°00'0 0.0
2017-Oct-14 17:59S 29°53' E 031°00'0 0.0
2017-Oct-14 17:29S 29°53' E 031°00'0 0.0
2017-Oct-14 16:59S 29°53' E 031°00'0 0.0
2017-Oct-14 16:29S 29°53' E 031°00'0 0.0
2017-Oct-14 15:59S 29°53' E 031°00'0 0.0
2017-Oct-14 15:29S 29°53' E 031°00'0 0.0
2017-Oct-14 14:56S 29°53' E 031°00'0 0.0
2017-Oct-14 14:29S 29°53' E 031°00'0 0.0
2017-Oct-14 13:59S 29°53' E 031°00'0 0.0
2017-Oct-14 13:29S 29°53' E 031°00'0 0.0
2017-Oct-14 12:59S 29°53' E 031°00'0 0.0
2017-Oct-14 12:29S 29°53' E 031°00'0 0.0
2017-Oct-14 11:59S 29°53' E 031°00'0 0.0
2017-Oct-14 11:29S 29°53' E 031°00'0 0.0
2017-Oct-14 10:59S 29°53' E 031°00'0 0.0
2017-Oct-14 10:29S 29°53' E 031°00'0 0.0
2017-Oct-14 09:59S 29°53' E 031°00'0 0.0
2017-Oct-14 09:29S 29°53' E 031°00'0 0.0
2017-Oct-14 08:14S 29°53' E 031°00'0 0.0
2017-Oct-14 07:59S 29°53' E 031°00'0 0.0
2017-Oct-14 07:29S 29°53' E 031°00'0 0.0
2017-Oct-14 06:59S 29°53' E 031°00'0 0.0
2017-Oct-14 06:29S 29°53' E 031°00'0 0.0
2017-Oct-14 05:47S 29°53' E 031°00'0 0.0
2017-Oct-14 05:29S 29°53' E 031°00'0 0.0
2017-Oct-14 04:59S 29°53' E 031°00'0 0.0
2017-Oct-14 04:29S 29°53' E 031°00'0 0.0
2017-Oct-14 03:59S 29°53' E 031°00'0 0.0
2017-Oct-14 03:29S 29°53' E 031°00'0 0.0
2017-Oct-14 02:56S 29°53' E 031°00'0 0.0
2017-Oct-14 02:29S 29°53' E 031°00'0 0.0
2017-Oct-14 01:59S 29°53' E 031°00'0 0.0
2017-Oct-14 01:29S 29°53' E 031°00'0 0.0
2017-Oct-14 00:59S 29°53' E 031°00'0 0.0
2017-Oct-14 00:29S 29°53' E 031°00'0 0.0
2017-Oct-13 23:59S 29°53' E 031°00'0 0.0
2017-Oct-13 23:29S 29°53' E 031°00'0 0.0
2017-Oct-13 22:59S 29°53' E 031°00'0 0.0
2017-Oct-13 22:29S 29°53' E 031°00'0 0.0
2017-Oct-13 21:56S 29°53' E 031°00'0 0.0
2017-Oct-13 21:29S 29°53' E 031°00'0 0.0
2017-Oct-13 20:59S 29°53' E 031°00'0 0.0
2017-Oct-13 20:29S 29°53' E 031°00'0 0.0
2017-Oct-13 19:59S 29°53' E 031°00'0 0.0
2017-Oct-13 19:29S 29°53' E 031°00'0 0.0
2017-Oct-13 18:59S 29°53' E 031°00'0 0.0
2017-Oct-13 18:29S 29°53' E 031°00'0 0.0
2017-Oct-13 17:59S 29°53' E 031°00'0 0.0
2017-Oct-13 17:29S 29°53' E 031°00'0 0.0
2017-Oct-13 16:59S 29°53' E 031°00'0 0.0
2017-Oct-13 16:29S 29°53' E 031°00'0 0.0
2017-Oct-13 15:59S 29°53' E 031°00'0 0.0
2017-Oct-13 15:29S 29°53' E 031°00'0 0.0
2017-Oct-13 14:59S 29°53' E 031°00'0 0.0
2017-Oct-13 14:29S 29°53' E 031°00'0 0.0
2017-Oct-13 13:59S 29°53' E 031°00'0 0.0
2017-Oct-13 13:29S 29°53' E 031°00'0 0.0
2017-Oct-13 12:59S 29°53' E 031°00'0 0.0
2017-Oct-13 12:29S 29°53' E 031°00'0 0.0
2017-Oct-13 11:59S 29°53' E 031°00'0 0.0
2017-Oct-13 11:29S 29°53' E 031°00'0 0.0
2017-Oct-13 10:59S 29°53' E 031°00'0 0.0
2017-Oct-13 10:29S 29°53' E 031°00'0 0.0
2017-Oct-13 09:56S 29°53' E 031°00'0 0.0
2017-Oct-13 09:29S 29°53' E 031°00'0 0.0
2017-Oct-13 08:59S 29°53' E 031°00'0 0.0
2017-Oct-13 08:29S 29°53' E 031°00'0 0.0
2017-Oct-13 07:56S 29°53' E 031°00'0 0.0
2017-Oct-13 07:29S 29°53' E 031°00'0 0.0
2017-Oct-13 06:59S 29°53' E 031°00'0 0.0
2017-Oct-13 06:29S 29°53' E 031°00'0 0.0
2017-Oct-13 05:56S 29°53' E 031°00'0 0.0
2017-Oct-13 05:29S 29°53' E 031°00'0 0.0
2017-Oct-13 04:59S 29°53' E 031°00'0 0.0
2017-Oct-13 04:29S 29°53' E 031°00'0 0.0
2017-Oct-13 03:58S 29°53' E 031°00'0 0.0
2017-Oct-13 03:28S 29°53' E 031°00'0 0.0
2017-Oct-13 02:58S 29°53' E 031°00'0 0.0
2017-Oct-13 02:28S 29°53' E 031°00'0 0.0
2017-Oct-13 01:58S 29°53' E 031°00'0 0.0
2017-Oct-13 01:28S 29°53' E 031°00'0 0.0
2017-Oct-13 00:58S 29°53' E 031°00'0 0.0
2017-Oct-13 00:28S 29°53' E 031°00'0 0.0
2017-Oct-12 23:58S 29°53' E 031°00'0 0.0
2017-Oct-12 23:25S 29°53' E 031°00'0 0.0
2017-Oct-12 22:58S 29°53' E 031°00'0 0.0
2017-Oct-12 22:28S 29°53' E 031°00'0 0.0
2017-Oct-12 21:58S 29°53' E 031°00'0 0.0
2017-Oct-12 21:28S 29°53' E 031°00'0 0.0
2017-Oct-12 20:58S 29°53' E 031°00'0 0.0
2017-Oct-12 20:28S 29°53' E 031°00'0 0.0
2017-Oct-12 19:58S 29°53' E 031°00'0 0.0
2017-Oct-12 19:31S 29°53' E 031°00'0 0.0
2017-Oct-12 19:00S 29°53' E 031°00'0 0.0
2017-Oct-12 18:28S 29°53' E 031°00'0 0.0
2017-Oct-12 17:58S 29°53' E 031°00'0 0.0
2017-Oct-12 17:25S 29°53' E 031°00'0 0.0
2017-Oct-12 16:58S 29°53' E 031°00'0 0.0
2017-Oct-12 16:28S 29°53' E 031°00'0 0.0
2017-Oct-12 15:58S 29°53' E 031°00'0 0.0
2017-Oct-12 15:28S 29°53' E 031°00'0 0.0
2017-Oct-12 14:58S 29°53' E 031°00'0 0.0
2017-Oct-12 14:28S 29°53' E 031°00'0 0.0
2017-Oct-12 13:58S 29°53' E 031°00'0 0.0
2017-Oct-12 13:28S 29°53' E 031°00'0 0.0
2017-Oct-12 12:58S 29°53' E 031°00'0 0.0
2017-Oct-12 12:28S 29°53' E 031°00'  
Track history (hours):
 
Tides and Currents Weather Stations Pressure Air Temp Water Temp Dewpoint Dewpoint Depression Visibility Wind Speed Wind Dir Waves Ship Positions

M\v Black Rhino

Last reported at 2017-Oct-22 11:58 UTC. Time now 2017-Oct-22 12:21 UTC.
Position S 29°53' E 031°02'.

Length 101 m; draft 4.2 m.

Type: Cargo ship. MMSI: 538090408.

Date/timePositionNaut miles runAvg speedWind from/ knotsBaromVisibWave heightAir tempDewpointWater temp
2017-Oct-22 11:58S 29°53' E 031°02'0 0.0
2017-Oct-22 11:28S 29°53' E 031°02'0 0.0
2017-Oct-22 10:58S 29°53' E 031°02'0 0.0
2017-Oct-22 10:28S 29°53' E 031°02'0 0.0
2017-Oct-22 09:55S 29°53' E 031°02'0 0.0
2017-Oct-22 09:28S 29°53' E 031°02'0 0.0
2017-Oct-22 08:58S 29°53' E 031°02'0 0.0
2017-Oct-22 08:30S 29°53' E 031°02'0 0.0
2017-Oct-22 07:54S 29°53' E 031°02'0 0.0
2017-Oct-22 07:30S 29°53' E 031°02'0 0.0
2017-Oct-22 07:00S 29°53' E 031°02'0 0.0
2017-Oct-22 06:21S 29°53' E 031°02'6 0.7
2017-Oct-21 21:48S 29°48' E 031°06'1 2.1
2017-Oct-21 21:30S 29°49' E 031°06'1 2.1
2017-Oct-21 21:00S 29°48' E 031°06'1 2.5
2017-Oct-21 20:30S 29°47' E 031°06'1 1.5
2017-Oct-21 20:00S 29°46' E 031°06'1 1.8
2017-Oct-21 19:30S 29°47' E 031°07'1 2.1
2017-Oct-21 19:00S 29°48' E 031°07'1 1.8
2017-Oct-21 18:30S 29°49' E 031°08'1 2.0
2017-Oct-21 18:00S 29°49' E 031°08'510.1
2017-Oct-21 17:30S 29°55' E 031°08'611.9
2017-Oct-21 17:00S 29°51' E 031°14'815.1
2017-Oct-21 16:30S 29°46' E 031°20'3 5.4
2017-Oct-21 16:01S 29°44' E 031°23'2 3.5
2017-Oct-21 15:30S 29°43' E 031°23'2 3.3
2017-Oct-21 15:00S 29°44' E 031°22'9 9.3
2017-Oct-21 14:00S 29°48' E 031°12'0 0.8
2017-Oct-21 13:30S 29°48' E 031°12'3 6.5
2017-Oct-21 13:00S 29°48' E 031°08'2 3.2
2017-Oct-21 12:28S 29°48' E 031°06'3 6.3
2017-Oct-21 12:00S 29°51' E 031°05'3 6.1
2017-Oct-21 11:30S 29°52' E 031°02'2 3.3
2017-Oct-21 10:59S 29°53' E 031°00'0 0.0
2017-Oct-21 10:29S 29°53' E 031°00'0 0.0
2017-Oct-21 09:59S 29°53' E 031°00'0 0.0
2017-Oct-21 09:29S 29°53' E 031°00'0 0.0
2017-Oct-21 08:59S 29°53' E 031°00'0 0.0
2017-Oct-21 08:29S 29°53' E 031°00'0 0.0
2017-Oct-21 07:59S 29°53' E 031°00'0 0.0
2017-Oct-21 07:29S 29°53' E 031°00'0 0.0
2017-Oct-21 06:59S 29°53' E 031°00'0 0.0
2017-Oct-21 06:29S 29°53' E 031°00'0 0.0
2017-Oct-21 05:53S 29°53' E 031°00'0 0.0
2017-Oct-21 05:29S 29°53' E 031°00'0 0.0
2017-Oct-21 05:00S 29°53' E 031°00'0 0.0
2017-Oct-21 04:30S 29°53' E 031°00'0 0.0
2017-Oct-21 04:00S 29°53' E 031°00'0 0.0
2017-Oct-21 03:30S 29°53' E 031°00'0 0.0
2017-Oct-21 03:00S 29°53' E 031°00'0 0.0
2017-Oct-21 02:30S 29°53' E 031°00'0 0.0
2017-Oct-21 02:00S 29°53' E 031°00'0 0.0
2017-Oct-21 01:30S 29°53' E 031°00'0 0.0
2017-Oct-21 01:00S 29°53' E 031°00'0 0.0
2017-Oct-21 00:30S 29°53' E 031°00'0 0.0
2017-Oct-21 00:00S 29°53' E 031°00'0 0.0
2017-Oct-20 23:30S 29°53' E 031°00'0 0.0
2017-Oct-20 23:00S 29°53' E 031°00'0 0.0
2017-Oct-20 22:30S 29°53' E 031°00'0 0.0
2017-Oct-20 22:00S 29°53' E 031°00'0 0.0
2017-Oct-20 21:30S 29°53' E 031°00'0 0.0
2017-Oct-20 21:00S 29°53' E 031°00'0 0.0
2017-Oct-20 20:30S 29°53' E 031°00'0 0.0
2017-Oct-20 20:00S 29°53' E 031°00'0 0.0
2017-Oct-20 19:30S 29°53' E 031°00'0 0.0
2017-Oct-20 19:00S 29°53' E 031°00'0 0.0
2017-Oct-20 18:30S 29°53' E 031°00'0 0.0
2017-Oct-20 17:58S 29°53' E 031°00'0 0.0
2017-Oct-20 17:28S 29°53' E 031°00'0 0.0
2017-Oct-20 16:58S 29°53' E 031°00'0 0.0
2017-Oct-20 16:28S 29°53' E 031°00'0 0.0
2017-Oct-20 15:58S 29°53' E 031°00'0 0.0
2017-Oct-20 15:28S 29°53' E 031°00'0 0.0
2017-Oct-20 14:58S 29°53' E 031°00'0 0.0
2017-Oct-20 13:58S 29°53' E 031°00'0 0.0
2017-Oct-20 13:28S 29°53' E 031°00'0 0.0
2017-Oct-20 12:58S 29°53' E 031°00'0 0.0
2017-Oct-20 12:28S 29°53' E 031°00'0 0.0
2017-Oct-20 11:58S 29°53' E 031°00'0 0.0
2017-Oct-20 11:28S 29°53' E 031°00'0 0.0
2017-Oct-20 10:58S 29°53' E 031°00'0 0.0
2017-Oct-20 10:28S 29°53' E 031°00'0 0.0
2017-Oct-20 09:58S 29°53' E 031°00'0 0.0
2017-Oct-20 09:28S 29°53' E 031°00'0 0.0
2017-Oct-20 08:58S 29°53' E 031°00'0 0.0
2017-Oct-20 08:28S 29°53' E 031°00'0 0.0
2017-Oct-20 07:58S 29°53' E 031°00'0 0.0
2017-Oct-20 07:30S 29°53' E 031°00'0 0.0
2017-Oct-20 07:00S 29°53' E 031°00'0 0.0
2017-Oct-20 06:30S 29°53' E 031°00'0 0.0
2017-Oct-20 05:53S 29°53' E 031°00'0 0.0
2017-Oct-20 05:29S 29°53' E 031°00'0 0.0
2017-Oct-20 04:59S 29°53' E 031°00'0 0.0
2017-Oct-20 04:29S 29°53' E 031°00'0 0.0
2017-Oct-20 03:59S 29°53' E 031°00'0 0.0
2017-Oct-20 03:29S 29°53' E 031°00'0 0.0
2017-Oct-20 02:59S 29°53' E 031°00'0 0.0
2017-Oct-20 02:29S 29°53' E 031°00'0 0.0
2017-Oct-20 01:59S 29°53' E 031°00'0 0.0
2017-Oct-20 01:29S 29°53' E 031°00'0 0.0
2017-Oct-20 00:59S 29°53' E 031°00'0 0.0
2017-Oct-20 00:29S 29°53' E 031°00'0 0.0
2017-Oct-19 23:59S 29°53' E 031°00'0 0.0
2017-Oct-19 23:29S 29°53' E 031°00'0 0.0
2017-Oct-19 22:59S 29°53' E 031°00'0 0.0
2017-Oct-19 22:29S 29°53' E 031°00'0 0.0
2017-Oct-19 21:57S 29°53' E 031°00'0 0.0
2017-Oct-19 21:29S 29°53' E 031°00'0 0.0
2017-Oct-19 20:56S 29°53' E 031°00'0 0.0
2017-Oct-19 20:29S 29°53' E 031°00'0 0.0
2017-Oct-19 19:59S 29°53' E 031°00'0 0.0
2017-Oct-19 19:29S 29°53' E 031°00'0 0.0
2017-Oct-19 18:59S 29°53' E 031°00'0 0.0
2017-Oct-19 18:30S 29°53' E 031°00'0 0.0
2017-Oct-19 17:58S 29°53' E 031°00'0 0.0
2017-Oct-19 17:28S 29°53' E 031°00'0 0.0
2017-Oct-19 16:58S 29°53' E 031°00'0 0.0
2017-Oct-19 16:28S 29°53' E 031°00'0 0.0
2017-Oct-19 15:58S 29°53' E 031°00'0 0.0
2017-Oct-19 15:28S 29°53' E 031°00'0 0.0
2017-Oct-19 14:58S 29°53' E 031°00'0 0.0
2017-Oct-19 14:25S 29°53' E 031°00'0 0.0
2017-Oct-19 13:58S 29°53' E 031°00'0 0.0
2017-Oct-19 13:28S 29°53' E 031°00'0 0.0
2017-Oct-19 12:55S 29°53' E 031°00'0 0.0
2017-Oct-19 12:25S 29°53' E 031°00'0 0.0
2017-Oct-19 11:58S 29°53' E 031°00'0 0.0
2017-Oct-19 11:25S 29°53' E 031°00'0 0.0
2017-Oct-19 10:58S 29°53' E 031°00'0 0.0
2017-Oct-19 10:28S 29°53' E 031°00'0 0.0
2017-Oct-19 09:58S 29°53' E 031°00'0 0.0
2017-Oct-19 09:25S 29°53' E 031°00'0 0.0
2017-Oct-19 08:58S 29°53' E 031°00'0 0.0
2017-Oct-19 08:25S 29°53' E 031°00'0 0.0
2017-Oct-19 07:58S 29°53' E 031°00'0 0.0
2017-Oct-19 07:28S 29°53' E 031°00'0 0.0
2017-Oct-19 06:58S 29°53' E 031°00'0 0.0
2017-Oct-19 06:28S 29°53' E 031°00'0 0.0
2017-Oct-19 05:52S 29°53' E 031°00'0 0.0
2017-Oct-19 05:28S 29°53' E 031°00'0 0.0
2017-Oct-19 04:58S 29°53' E 031°00'0 0.0
2017-Oct-19 04:25S 29°53' E 031°00'0 0.0
2017-Oct-19 03:58S 29°53' E 031°00'0 0.0
2017-Oct-19 03:25S 29°53' E 031°00'0 0.0
2017-Oct-19 02:58S 29°53' E 031°00'0 0.0
2017-Oct-19 02:28S 29°53' E 031°00'0 0.0
2017-Oct-19 01:58S 29°53' E 031°00'0 0.0
2017-Oct-19 01:28S 29°53' E 031°00'0 0.0
2017-Oct-19 00:58S 29°53' E 031°00'0 0.0
2017-Oct-19 00:28S 29°53' E 031°00'0 0.0
2017-Oct-18 23:58S 29°53' E 031°00'0 0.0
2017-Oct-18 23:28S 29°53' E 031°00'0 0.0
2017-Oct-18 22:58S 29°53' E 031°00'0 0.0
2017-Oct-18 22:28S 29°53' E 031°00'0 0.0
2017-Oct-18 21:58S 29°53' E 031°00'0 0.0
2017-Oct-18 21:28S 29°53' E 031°00'0 0.0
2017-Oct-18 20:58S 29°53' E 031°00'0 0.0
2017-Oct-18 20:28S 29°53' E 031°00'0 0.0
2017-Oct-18 19:58S 29°53' E 031°00'0 0.0
2017-Oct-18 19:28S 29°53' E 031°00'0 0.0
2017-Oct-18 18:58S 29°53' E 031°00'0 0.0
2017-Oct-18 18:28S 29°53' E 031°00'0 0.0
2017-Oct-18 17:59S 29°53' E 031°00'0 0.0
2017-Oct-18 17:29S 29°53' E 031°00'0 0.0
2017-Oct-18 16:59S 29°53' E 031°00'0 0.0
2017-Oct-18 16:29S 29°53' E 031°00'0 0.0
2017-Oct-18 15:59S 29°53' E 031°00'0 0.0
2017-Oct-18 15:29S 29°53' E 031°00'0 0.0
2017-Oct-18 14:59S 29°53' E 031°00'0 0.0
2017-Oct-18 13:59S 29°53' E 031°00'0 0.0
2017-Oct-18 13:29S 29°53' E 031°00'0 0.0
2017-Oct-18 12:59S 29°53' E 031°00'0 0.0
2017-Oct-18 12:29S 29°53' E 031°00'0 0.0
2017-Oct-18 11:59S 29°53' E 031°00'0 0.0
2017-Oct-18 11:29S 29°53' E 031°00'0 0.0
2017-Oct-18 10:59S 29°53' E 031°00'0 0.0
2017-Oct-18 10:29S 29°53' E 031°00'0 0.0
2017-Oct-18 09:59S 29°53' E 031°00'0 0.0
2017-Oct-18 09:29S 29°53' E 031°00'0 0.0
2017-Oct-18 08:59S 29°53' E 031°00'0 0.0
2017-Oct-18 08:29S 29°53' E 031°00'0 0.0
2017-Oct-18 07:59S 29°53' E 031°00'0 0.0
2017-Oct-18 07:30S 29°53' E 031°00'0 0.0
2017-Oct-18 07:00S 29°53' E 031°00'0 0.0
2017-Oct-18 06:29S 29°53' E 031°00'0 0.0
2017-Oct-18 05:53S 29°53' E 031°00'0 0.0
2017-Oct-18 05:29S 29°53' E 031°00'0 0.0
2017-Oct-18 04:59S 29°53' E 031°00'0 0.0
2017-Oct-18 04:29S 29°53' E 031°00'0 0.0
2017-Oct-18 04:00S 29°53' E 031°00'0 0.0
2017-Oct-18 03:30S 29°53' E 031°00'0 0.0
2017-Oct-18 03:00S 29°53' E 031°00'0 0.0
2017-Oct-18 02:30S 29°53' E 031°00'0 0.0
2017-Oct-18 02:00S 29°53' E 031°00'0 0.0
2017-Oct-18 01:30S 29°53' E 031°00'0 0.0
2017-Oct-18 01:00S 29°53' E 031°00'0 0.0
2017-Oct-18 00:30S 29°53' E 031°00'0 0.0
2017-Oct-18 00:00S 29°53' E 031°00'0 0.0
2017-Oct-17 23:30S 29°53' E 031°00'0 0.0
2017-Oct-17 23:00S 29°53' E 031°00'0 0.0
2017-Oct-17 22:30S 29°53' E 031°00'0 0.0
2017-Oct-17 22:00S 29°53' E 031°00'0 0.0
2017-Oct-17 21:29S 29°53' E 031°00'0 0.0
2017-Oct-17 20:59S 29°53' E 031°00'0 0.0
2017-Oct-17 20:29S 29°53' E 031°00'0 0.0
2017-Oct-17 19:59S 29°53' E 031°00'0 0.0
2017-Oct-17 19:26S 29°53' E 031°00'0 0.0
2017-Oct-17 19:00S 29°53' E 031°00'0 0.0
2017-Oct-17 18:29S 29°53' E 031°00'0 0.0
2017-Oct-17 17:59S 29°53' E 031°00'0 0.0
2017-Oct-17 17:29S 29°53' E 031°00'0 0.0
2017-Oct-17 16:59S 29°53' E 031°00'0 0.0
2017-Oct-17 16:29S 29°53' E 031°00'0 0.0
2017-Oct-17 15:59S 29°53' E 031°00'0 0.0
2017-Oct-17 15:29S 29°53' E 031°00'0 0.0
2017-Oct-17 14:59S 29°53' E 031°00'0 0.0
2017-Oct-17 14:29S 29°53' E 031°00'0 0.0
2017-Oct-17 13:59S 29°53' E 031°00'0 0.0
2017-Oct-17 13:26S 29°53' E 031°00'0 0.0
2017-Oct-17 12:59S 29°53' E 031°00'0 0.0
2017-Oct-17 12:26S 29°53' E 031°00'0 0.0
2017-Oct-17 11:59S 29°53' E 031°00'0 0.0
2017-Oct-17 11:30S 29°53' E 031°00'0 0.0
2017-Oct-17 11:00S 29°53' E 031°00'0 0.0
2017-Oct-17 10:30S 29°53' E 031°00'0 0.0
2017-Oct-17 10:00S 29°53' E 031°00'0 0.0
2017-Oct-17 09:30S 29°53' E 031°00'0 0.0
2017-Oct-17 08:59S 29°53' E 031°00'0 0.0
2017-Oct-17 08:29S 29°53' E 031°00'0 0.0
2017-Oct-17 07:59S 29°53' E 031°00'0 0.0
2017-Oct-17 07:29S 29°53' E 031°00'0 0.0
2017-Oct-17 06:59S 29°53' E 031°00'0 0.0
2017-Oct-17 06:29S 29°53' E 031°00'0 0.0
2017-Oct-17 05:53S 29°53' E 031°00'0 0.0
2017-Oct-17 05:29S 29°53' E 031°00'0 0.0
2017-Oct-17 05:00S 29°53' E 031°00'0 0.0
2017-Oct-17 04:30S 29°53' E 031°00'0 0.0
2017-Oct-17 04:00S 29°53' E 031°00'0 0.0
2017-Oct-17 03:15S 29°53' E 031°00'0 0.0
2017-Oct-17 03:00S 29°53' E 031°00'0 0.0
2017-Oct-17 02:27S 29°53' E 031°00'0 0.0
2017-Oct-17 02:00S 29°53' E 031°00'0 0.0
2017-Oct-17 01:30S 29°53' E 031°00'0 0.0
2017-Oct-17 01:00S 29°53' E 031°00'0 0.0
2017-Oct-17 00:29S 29°53' E 031°00'0 0.0
2017-Oct-16 23:59S 29°53' E 031°00'0 0.0
2017-Oct-16 23:29S 29°53' E 031°00'0 0.0
2017-Oct-16 22:59S 29°53' E 031°00'0 0.0
2017-Oct-16 22:29S 29°53' E 031°00'0 0.0
2017-Oct-16 21:59S 29°53' E 031°00'0 0.0
2017-Oct-16 21:29S 29°53' E 031°00'0 0.0
2017-Oct-16 20:59S 29°53' E 031°00'0 0.0
2017-Oct-16 20:29S 29°53' E 031°00'0 0.0
2017-Oct-16 19:59S 29°53' E 031°00'0 0.0
2017-Oct-16 19:29S 29°53' E 031°00'0 0.0
2017-Oct-16 19:00S 29°53' E 031°00'0 0.0
2017-Oct-16 18:30S 29°53' E 031°00'0 0.0
2017-Oct-16 17:59S 29°53' E 031°00'0 0.0
2017-Oct-16 17:29S 29°53' E 031°00'0 0.0
2017-Oct-16 16:59S 29°53' E 031°00'0 0.0
2017-Oct-16 16:29S 29°53' E 031°00'0 0.0
2017-Oct-16 15:59S 29°53' E 031°00'0 0.0
2017-Oct-16 15:29S 29°53' E 031°00'0 0.0
2017-Oct-16 14:59S 29°53' E 031°00'0 0.0
2017-Oct-16 14:29S 29°53' E 031°00'0 0.0
2017-Oct-16 13:29S 29°53' E 031°00'0 0.0
2017-Oct-16 12:59S 29°53' E 031°00'0 0.0
2017-Oct-16 12:29S 29°53' E 031°00'0 0.0
2017-Oct-16 11:59S 29°53' E 031°00'0 0.0
2017-Oct-16 11:29S 29°53' E 031°00'0 0.0
2017-Oct-16 10:59S 29°53' E 031°00'0 0.0
2017-Oct-16 10:29S 29°53' E 031°00'0 0.0
2017-Oct-16 09:59S 29°53' E 031°00'0 0.0
2017-Oct-16 09:29S 29°53' E 031°00'0 0.0
2017-Oct-16 08:59S 29°53' E 031°00'0 0.0
2017-Oct-16 08:29S 29°53' E 031°00'0 0.0
2017-Oct-16 07:59S 29°53' E 031°00'0 0.0
2017-Oct-16 07:29S 29°53' E 031°00'0 0.0
2017-Oct-16 06:59S 29°53' E 031°00'0 0.0
2017-Oct-16 06:29S 29°53' E 031°00'0 0.0
2017-Oct-16 05:53S 29°53' E 031°00'0 0.0
2017-Oct-16 05:29S 29°53' E 031°00'0 0.0
2017-Oct-16 04:59S 29°53' E 031°00'0 0.0
2017-Oct-16 04:29S 29°53' E 031°00'0 0.0
2017-Oct-16 03:59S 29°53' E 031°00'0 0.0
2017-Oct-16 03:29S 29°53' E 031°00'0 0.0
2017-Oct-16 02:59S 29°53' E 031°00'0 0.0
2017-Oct-16 02:29S 29°53' E 031°00'0 0.0
2017-Oct-16 01:59S 29°53' E 031°00'0 0.0
2017-Oct-16 01:29S 29°53' E 031°00'0 0.0
2017-Oct-16 00:59S 29°53' E 031°00'0 0.0
2017-Oct-16 00:29S 29°53' E 031°00'0 0.0
2017-Oct-15 23:59S 29°53' E 031°00'0 0.0
2017-Oct-15 23:26S 29°53' E 031°00'0 0.0
2017-Oct-15 22:59S 29°53' E 031°00'0 0.0
2017-Oct-15 22:29S 29°53' E 031°00'0 0.0
2017-Oct-15 21:59S 29°53' E 031°00'0 0.0
2017-Oct-15 21:29S 29°53' E 031°00'0 0.0
2017-Oct-15 20:59S 29°53' E 031°00'0 0.0
2017-Oct-15 20:29S 29°53' E 031°00'0 0.0
2017-Oct-15 19:59S 29°53' E 031°00'0 0.0
2017-Oct-15 19:29S 29°53' E 031°00'0 0.0
2017-Oct-15 18:59S 29°53' E 031°00'0 0.0
2017-Oct-15 18:29S 29°53' E 031°00'0 0.0
2017-Oct-15 17:59S 29°53' E 031°00'0 0.0
2017-Oct-15 17:29S 29°53' E 031°00'0 0.0
2017-Oct-15 16:59S 29°53' E 031°00'0 0.0
2017-Oct-15 16:29S 29°53' E 031°00'0 0.0
2017-Oct-15 15:59S 29°53' E 031°00'0 0.0
2017-Oct-15 15:29S 29°53' E 031°00'0 0.0
2017-Oct-15 14:59S 29°53' E 031°00'0 0.0
2017-Oct-15 13:59S 29°53' E 031°00'0 0.0
2017-Oct-15 13:29S 29°53' E 031°00'0 0.0
2017-Oct-15 12:59S 29°53' E 031°00'0 0.0
2017-Oct-15 12:29S 29°53' E 031°00'0 0.0
2017-Oct-15 11:59S 29°53' E 031°00'0 0.0
2017-Oct-15 08:20S 29°53' E 031°00'0 0.0
2017-Oct-15 07:59S 29°53' E 031°00'0 0.0
2017-Oct-15 07:29S 29°53' E 031°00'0 0.0
2017-Oct-15 06:59S 29°53' E 031°00'0 0.0
2017-Oct-15 06:29S 29°53' E 031°00'0 0.0
2017-Oct-15 05:44S 29°53' E 031°00'0 0.0
2017-Oct-15 05:29S 29°53' E 031°00'0 0.0
2017-Oct-15 04:59S 29°53' E 031°00'0 0.0
2017-Oct-15 04:29S 29°53' E 031°00'0 0.0
2017-Oct-15 03:59S 29°53' E 031°00'0 0.0
2017-Oct-15 03:29S 29°53' E 031°00'0 0.0
2017-Oct-15 02:59S 29°53' E 031°00'0 0.0
2017-Oct-15 02:29S 29°53' E 031°00'0 0.0
2017-Oct-15 01:59S 29°53' E 031°00'0 0.0
2017-Oct-15 01:29S 29°53' E 031°00'0 0.0
2017-Oct-15 00:59S 29°53' E 031°00'0 0.0
2017-Oct-15 00:29S 29°53' E 031°00'0 0.0
2017-Oct-14 23:59S 29°53' E 031°00'0 0.0
2017-Oct-14 23:29S 29°53' E 031°00'0 0.0
2017-Oct-14 22:59S 29°53' E 031°00'0 0.0
2017-Oct-14 22:29S 29°53' E 031°00'0 0.0
2017-Oct-14 21:59S 29°53' E 031°00'0 0.0
2017-Oct-14 21:29S 29°53' E 031°00'0 0.0
2017-Oct-14 20:59S 29°53' E 031°00'0 0.0
2017-Oct-14 20:29S 29°53' E 031°00'0 0.0
2017-Oct-14 19:59S 29°53' E 031°00'0 0.0
2017-Oct-14 19:29S 29°53' E 031°00'0 0.0
2017-Oct-14 18:59S 29°53' E 031°00'0 0.0
2017-Oct-14 18:29S 29°53' E 031°00'0 0.0
2017-Oct-14 17:59S 29°53' E 031°00'0 0.0
2017-Oct-14 17:29S 29°53' E 031°00'0 0.0
2017-Oct-14 16:59S 29°53' E 031°00'0 0.0
2017-Oct-14 16:29S 29°53' E 031°00'0 0.0
2017-Oct-14 15:59S 29°53' E 031°00'0 0.0
2017-Oct-14 15:29S 29°53' E 031°00'0 0.0
2017-Oct-14 14:56S 29°53' E 031°00'0 0.0
2017-Oct-14 14:29S 29°53' E 031°00'0 0.0
2017-Oct-14 13:59S 29°53' E 031°00'0 0.0
2017-Oct-14 13:29S 29°53' E 031°00'0 0.0
2017-Oct-14 12:59S 29°53' E 031°00'0 0.0
2017-Oct-14 12:29S 29°53' E 031°00'0 0.0
2017-Oct-14 11:59S 29°53' E 031°00'0 0.0
2017-Oct-14 11:29S 29°53' E 031°00'0 0.0
2017-Oct-14 10:59S 29°53' E 031°00'0 0.0
2017-Oct-14 10:29S 29°53' E 031°00'0 0.0
2017-Oct-14 09:59S 29°53' E 031°00'0 0.0
2017-Oct-14 09:29S 29°53' E 031°00'0 0.0
2017-Oct-14 08:14S 29°53' E 031°00'0 0.0
2017-Oct-14 07:59S 29°53' E 031°00'0 0.0
2017-Oct-14 07:29S 29°53' E 031°00'0 0.0
2017-Oct-14 06:59S 29°53' E 031°00'0 0.0
2017-Oct-14 06:29S 29°53' E 031°00'0 0.0
2017-Oct-14 05:47S 29°53' E 031°00'0 0.0
2017-Oct-14 05:29S 29°53' E 031°00'0 0.0
2017-Oct-14 04:59S 29°53' E 031°00'0 0.0
2017-Oct-14 04:29S 29°53' E 031°00'0 0.0
2017-Oct-14 03:59S 29°53' E 031°00'0 0.0
2017-Oct-14 03:29S 29°53' E 031°00'0 0.0
2017-Oct-14 02:56S 29°53' E 031°00'0 0.0
2017-Oct-14 02:29S 29°53' E 031°00'0 0.0
2017-Oct-14 01:59S 29°53' E 031°00'0 0.0
2017-Oct-14 01:29S 29°53' E 031°00'0 0.0
2017-Oct-14 00:59S 29°53' E 031°00'0 0.0
2017-Oct-14 00:29S 29°53' E 031°00'0 0.0
2017-Oct-13 23:59S 29°53' E 031°00'0 0.0
2017-Oct-13 23:29S 29°53' E 031°00'0 0.0
2017-Oct-13 22:59S 29°53' E 031°00'0 0.0
2017-Oct-13 22:29S 29°53' E 031°00'0 0.0
2017-Oct-13 21:56S 29°53' E 031°00'0 0.0
2017-Oct-13 21:29S 29°53' E 031°00'0 0.0
2017-Oct-13 20:59S 29°53' E 031°00'0 0.0
2017-Oct-13 20:29S 29°53' E 031°00'0 0.0
2017-Oct-13 19:59S 29°53' E 031°00'0 0.0
2017-Oct-13 19:29S 29°53' E 031°00'0 0.0
2017-Oct-13 18:59S 29°53' E 031°00'0 0.0
2017-Oct-13 18:29S 29°53' E 031°00'0 0.0
2017-Oct-13 17:59S 29°53' E 031°00'0 0.0
2017-Oct-13 17:29S 29°53' E 031°00'0 0.0
2017-Oct-13 16:59S 29°53' E 031°00'0 0.0
2017-Oct-13 16:29S 29°53' E 031°00'0 0.0
2017-Oct-13 15:59S 29°53' E 031°00'0 0.0
2017-Oct-13 15:29S 29°53' E 031°00'0 0.0
2017-Oct-13 14:59S 29°53' E 031°00'0 0.0
2017-Oct-13 14:29S 29°53' E 031°00'0 0.0
2017-Oct-13 13:59S 29°53' E 031°00'0 0.0
2017-Oct-13 13:29S 29°53' E 031°00'0 0.0
2017-Oct-13 12:59S 29°53' E 031°00'0 0.0
2017-Oct-13 12:29S 29°53' E 031°00'0 0.0
2017-Oct-13 11:59S 29°53' E 031°00'0 0.0
2017-Oct-13 11:29S 29°53' E 031°00'0 0.0
2017-Oct-13 10:59S 29°53' E 031°00'0 0.0
2017-Oct-13 10:29S 29°53' E 031°00'0 0.0
2017-Oct-13 09:56S 29°53' E 031°00'0 0.0
2017-Oct-13 09:29S 29°53' E 031°00'0 0.0
2017-Oct-13 08:59S 29°53' E 031°00'0 0.0
2017-Oct-13 08:29S 29°53' E 031°00'0 0.0
2017-Oct-13 07:56S 29°53' E 031°00'0 0.0
2017-Oct-13 07:29S 29°53' E 031°00'0 0.0
2017-Oct-13 06:59S 29°53' E 031°00'0 0.0
2017-Oct-13 06:29S 29°53' E 031°00'0 0.0
2017-Oct-13 05:56S 29°53' E 031°00'0 0.0
2017-Oct-13 05:29S 29°53' E 031°00'0 0.0
2017-Oct-13 04:59S 29°53' E 031°00'0 0.0
2017-Oct-13 04:29S 29°53' E 031°00'0 0.0
2017-Oct-13 03:58S 29°53' E 031°00'0 0.0
2017-Oct-13 03:28S 29°53' E 031°00'0 0.0
2017-Oct-13 02:58S 29°53' E 031°00'0 0.0
2017-Oct-13 02:28S 29°53' E 031°00'0 0.0
2017-Oct-13 01:58S 29°53' E 031°00'0 0.0
2017-Oct-13 01:28S 29°53' E 031°00'0 0.0
2017-Oct-13 00:58S 29°53' E 031°00'0 0.0
2017-Oct-13 00:28S 29°53' E 031°00'0 0.0
2017-Oct-12 23:58S 29°53' E 031°00'0 0.0
2017-Oct-12 23:25S 29°53' E 031°00'0 0.0
2017-Oct-12 22:58S 29°53' E 031°00'0 0.0
2017-Oct-12 22:28S 29°53' E 031°00'0 0.0
2017-Oct-12 21:58S 29°53' E 031°00'0 0.0
2017-Oct-12 21:28S 29°53' E 031°00'0 0.0
2017-Oct-12 20:58S 29°53' E 031°00'0 0.0
2017-Oct-12 20:28S 29°53' E 031°00'0 0.0
2017-Oct-12 19:58S 29°53' E 031°00'0 0.0
2017-Oct-12 19:31S 29°53' E 031°00'0 0.0
2017-Oct-12 19:00S 29°53' E 031°00'0 0.0
2017-Oct-12 18:28S 29°53' E 031°00'0 0.0
2017-Oct-12 17:58S 29°53' E 031°00'0 0.0
2017-Oct-12 17:25S 29°53' E 031°00'0 0.0
2017-Oct-12 16:58S 29°53' E 031°00'0 0.0
2017-Oct-12 16:28S 29°53' E 031°00'0 0.0
2017-Oct-12 15:58S 29°53' E 031°00'0 0.0
2017-Oct-12 15:28S 29°53' E 031°00'0 0.0
2017-Oct-12 14:58S 29°53' E 031°00'0 0.0
2017-Oct-12 14:28S 29°53' E 031°00'0 0.0
2017-Oct-12 13:58S 29°53' E 031°00'0 0.0
2017-Oct-12 13:28S 29°53' E 031°00'0 0.0
2017-Oct-12 12:58S 29°53' E 031°00'0 0.0
2017-Oct-12 12:28S 29°53' E 031°00'  

Dump ship's entire track history